createdAt,value
2022-10-03T00:00:35.382Z,72.88
2022-10-03T00:01:35.605Z,72.79
2022-10-03T00:02:35.551Z,72.6
2022-10-03T00:03:35.437Z,72.79
2022-10-03T00:04:35.202Z,72.79
2022-10-03T00:05:35.248Z,72.6
2022-10-03T00:06:35.497Z,72.6
2022-10-03T00:07:35.517Z,72.6
2022-10-03T00:08:35.710Z,72.6
2022-10-03T00:09:35.294Z,72.41
2022-10-03T00:10:35.578Z,72.41
2022-10-03T00:11:35.589Z,72.41
2022-10-03T00:12:35.618Z,72.69
2022-10-03T00:13:35.620Z,72.41
2022-10-03T00:14:35.386Z,72.5
2022-10-03T00:15:35.409Z,72.41
2022-10-03T00:16:38.909Z,72.6
2022-10-03T00:17:35.695Z,72.41
2022-10-03T00:18:35.459Z,72.41
2022-10-03T00:19:35.800Z,72.56
2022-10-03T00:20:35.758Z,72.37
2022-10-03T00:21:36.017Z,72.56
2022-10-03T00:22:35.791Z,72.41
2022-10-03T00:23:35.809Z,72.56
2022-10-03T00:24:35.586Z,72.6
2022-10-03T00:25:35.852Z,72.56
2022-10-03T00:26:35.865Z,72.66
2022-10-03T00:27:35.879Z,72.79
2022-10-03T00:28:35.772Z,72.56
2022-10-03T00:29:35.914Z,72.56
2022-10-03T00:30:35.710Z,72.66
2022-10-03T00:31:36.150Z,72.37
2022-10-03T00:32:36.002Z,72.85
2022-10-03T00:33:35.991Z,72.94
2022-10-03T00:34:36.014Z,73.33
2022-10-03T00:35:36.041Z,72.85
2022-10-03T00:36:36.049Z,72.66
2022-10-03T00:37:36.089Z,73.04
2022-10-03T00:38:36.091Z,73.04
2022-10-03T00:39:36.101Z,73.04
2022-10-03T00:40:36.128Z,72.85
2022-10-03T00:41:35.935Z,73.23
2022-10-03T00:42:36.165Z,72.56
2022-10-03T00:43:35.920Z,73.23
2022-10-03T00:44:36.201Z,73.23
2022-10-03T00:45:35.953Z,73.23
2022-10-03T00:46:36.499Z,72.94
2022-10-03T00:47:36.254Z,73.23
2022-10-03T00:48:36.300Z,73.04
2022-10-03T00:49:36.281Z,73.23
2022-10-03T00:50:36.051Z,73.23
2022-10-03T00:51:36.412Z,73.23
2022-10-03T00:52:36.697Z,73.23
2022-10-03T00:53:36.386Z,72.66
2022-10-03T00:54:36.384Z,72.66
2022-10-03T00:55:36.395Z,72.66
2022-10-03T00:56:36.151Z,73.04
2022-10-03T00:57:36.430Z,72.94
2022-10-03T00:58:36.456Z,72.94
2022-10-03T00:59:36.468Z,72.94
2022-10-03T01:00:36.409Z,72.94
2022-10-03T01:01:36.693Z,72.94
2022-10-03T01:02:36.761Z,72.94
2022-10-03T01:03:36.545Z,72.94
2022-10-03T01:04:36.586Z,72.94
2022-10-03T01:05:36.577Z,72.94
2022-10-03T01:06:36.610Z,72.75
2022-10-03T01:07:36.613Z,72.94
2022-10-03T01:08:36.635Z,72.75
2022-10-03T01:09:36.509Z,72.66
2022-10-03T01:10:36.674Z,72.94
2022-10-03T01:11:37.100Z,72.66
2022-10-03T01:12:36.709Z,73.23
2022-10-03T01:13:36.733Z,72.94
2022-10-03T01:14:36.748Z,73.23
2022-10-03T01:15:36.765Z,72.94
2022-10-03T01:16:36.784Z,73.23
2022-10-03T01:17:36.807Z,73.23
2022-10-03T01:18:36.563Z,73.23
2022-10-03T01:19:36.840Z,73.33
2022-10-03T01:20:36.878Z,72.94
2022-10-03T01:21:37.118Z,72.85
2022-10-03T01:22:36.892Z,73.23
2022-10-03T01:23:36.914Z,72.47
2022-10-03T01:24:36.669Z,72.75
2022-10-03T01:25:36.976Z,72.85
2022-10-03T01:26:36.964Z,72.66
2022-10-03T01:27:36.982Z,73.33
2022-10-03T01:28:36.747Z,72.66
2022-10-03T01:29:36.771Z,73.23
2022-10-03T01:30:36.789Z,72.85
2022-10-03T01:31:37.329Z,72.47
2022-10-03T01:32:37.076Z,72.66
2022-10-03T01:33:36.838Z,72.66
2022-10-03T01:34:37.174Z,72.37
2022-10-03T01:35:37.136Z,72.66
2022-10-03T01:36:37.278Z,72.75
2022-10-03T01:37:37.168Z,72.75
2022-10-03T01:38:37.187Z,72.56
2022-10-03T01:39:37.211Z,72.56
2022-10-03T01:40:37.226Z,72.37
2022-10-03T01:41:37.587Z,72.47
2022-10-03T01:42:37.259Z,72.66
2022-10-03T01:43:37.214Z,72.56
2022-10-03T01:44:37.293Z,72.85
2022-10-03T01:45:37.329Z,72.47
2022-10-03T01:46:37.501Z,72.56
2022-10-03T01:47:37.107Z,72.56
2022-10-03T01:48:37.111Z,72.56
2022-10-03T01:49:37.131Z,72.56
2022-10-03T01:50:37.406Z,72.66
2022-10-03T01:51:37.586Z,72.85
2022-10-03T01:52:37.820Z,72.75
2022-10-03T01:53:37.462Z,72.56
2022-10-03T01:54:37.478Z,72.75
2022-10-03T01:55:37.504Z,72.85
2022-10-03T01:56:37.515Z,72.66
2022-10-03T01:57:37.399Z,72.75
2022-10-03T01:58:37.297Z,72.66
2022-10-03T01:59:37.613Z,72.66
2022-10-03T02:00:37.650Z,72.56
2022-10-03T02:01:37.860Z,72.66
2022-10-03T02:02:37.632Z,72.66
2022-10-03T02:03:37.640Z,72.56
2022-10-03T02:04:37.671Z,72.47
2022-10-03T02:05:37.679Z,72.56
2022-10-03T02:06:37.708Z,72.66
2022-10-03T02:07:37.716Z,72.85
2022-10-03T02:08:37.764Z,72.56
2022-10-03T02:09:37.755Z,72.66
2022-10-03T02:10:37.523Z,73.04
2022-10-03T02:11:37.787Z,72.56
2022-10-03T02:12:37.552Z,73.23
2022-10-03T02:13:37.692Z,73.23
2022-10-03T02:14:37.592Z,72.47
2022-10-03T02:15:37.859Z,73.23
2022-10-03T02:16:38.077Z,73.33
2022-10-03T02:17:37.897Z,73.23
2022-10-03T02:18:37.923Z,72.94
2022-10-03T02:19:37.936Z,73.23
2022-10-03T02:20:37.702Z,73.23
2022-10-03T02:21:37.978Z,73.33
2022-10-03T02:22:37.734Z,73.23
2022-10-03T02:23:38.009Z,73.23
2022-10-03T02:24:38.056Z,72.85
2022-10-03T02:25:38.050Z,73.23
2022-10-03T02:26:38.074Z,73.23
2022-10-03T02:27:38.081Z,73.23
2022-10-03T02:28:38.114Z,72.85
2022-10-03T02:29:38.158Z,72.85
2022-10-03T02:30:37.885Z,72.94
2022-10-03T02:31:38.779Z,72.94
2022-10-03T02:32:37.913Z,72.94
2022-10-03T02:33:37.957Z,72.94
2022-10-03T02:34:38.214Z,72.94
2022-10-03T02:35:38.240Z,73.23
2022-10-03T02:36:38.005Z,72.94
2022-10-03T02:37:38.284Z,72.75
2022-10-03T02:38:38.025Z,72.75
2022-10-03T02:39:38.299Z,72.85
2022-10-03T02:40:38.349Z,72.94
2022-10-03T02:41:38.687Z,72.94
2022-10-03T02:42:38.374Z,72.75
2022-10-03T02:43:38.378Z,72.75
2022-10-03T02:44:38.207Z,72.94
2022-10-03T02:45:38.322Z,72.94
2022-10-03T02:46:38.431Z,72.75
2022-10-03T02:47:38.449Z,72.85
2022-10-03T02:48:38.211Z,72.94
2022-10-03T02:49:38.477Z,72.94
2022-10-03T02:50:38.496Z,72.85
2022-10-03T02:51:38.995Z,72.94
2022-10-03T02:52:38.686Z,72.94
2022-10-03T02:53:38.560Z,72.94
2022-10-03T02:54:38.339Z,73.14
2022-10-03T02:55:38.597Z,73.04
2022-10-03T02:56:38.637Z,73.04
2022-10-03T02:57:38.638Z,73.04
2022-10-03T02:58:38.651Z,72.94
2022-10-03T02:59:38.674Z,72.94
2022-10-03T03:00:38.818Z,73.14
2022-10-03T03:01:39.397Z,73.43
2022-10-03T03:02:38.556Z,73.23
2022-10-03T03:03:38.741Z,73.23
2022-10-03T03:04:38.762Z,73.61
2022-10-03T03:05:38.786Z,73.33
2022-10-03T03:06:38.536Z,73.04
2022-10-03T03:07:38.568Z,73.61
2022-10-03T03:08:38.831Z,73.61
2022-10-03T03:09:38.974Z,73.61
2022-10-03T03:10:38.870Z,73.14
2022-10-03T03:11:39.297Z,73.52
2022-10-03T03:12:43.633Z,73.52
2022-10-03T03:13:38.927Z,73.04
2022-10-03T03:14:38.935Z,73.14
2022-10-03T03:15:38.755Z,73.43
2022-10-03T03:16:39.204Z,73.14
2022-10-03T03:17:39.025Z,73.04
2022-10-03T03:18:39.020Z,73.14
2022-10-03T03:19:38.793Z,73.23
2022-10-03T03:20:39.056Z,73.14
2022-10-03T03:21:39.164Z,73.43
2022-10-03T03:22:39.087Z,73.52
2022-10-03T03:23:39.117Z,73.52
2022-10-03T03:24:39.011Z,73.61
2022-10-03T03:25:38.889Z,73.43
2022-10-03T03:26:39.161Z,73.61
2022-10-03T03:27:39.193Z,73.61
2022-10-03T03:28:39.222Z,73.61
2022-10-03T03:29:38.962Z,73.61
2022-10-03T03:30:39.239Z,73.61
2022-10-03T03:31:40.101Z,73.33
2022-10-03T03:32:39.270Z,73.52
2022-10-03T03:33:39.320Z,73.61
2022-10-03T03:34:39.305Z,73.61
2022-10-03T03:35:39.330Z,73.61
2022-10-03T03:36:39.345Z,73.8
2022-10-03T03:37:39.364Z,73.43
2022-10-03T03:38:39.124Z,73.61
2022-10-03T03:39:39.140Z,73.43
2022-10-03T03:40:39.163Z,73.43
2022-10-03T03:41:39.965Z,73.61
2022-10-03T03:42:39.468Z,73.61
2022-10-03T03:43:39.478Z,73.52
2022-10-03T03:44:39.521Z,73.61
2022-10-03T03:45:39.765Z,73.71
2022-10-03T03:46:39.276Z,73.71
2022-10-03T03:47:39.283Z,73.61
2022-10-03T03:48:39.586Z,73.61
2022-10-03T03:49:39.604Z,73.61
2022-10-03T03:50:39.606Z,73.9
2022-10-03T03:51:40.352Z,73.9
2022-10-03T03:52:39.840Z,73.9
2022-10-03T03:53:39.407Z,73.52
2022-10-03T03:54:39.678Z,73.52
2022-10-03T03:55:39.695Z,73.71
2022-10-03T03:56:39.747Z,73.61
2022-10-03T03:57:39.723Z,73.61
2022-10-03T03:58:39.744Z,73.43
2022-10-03T03:59:39.772Z,73.52
2022-10-03T04:00:39.823Z,73.61
2022-10-03T04:01:40.418Z,73.33
2022-10-03T04:02:39.918Z,73.33
2022-10-03T04:03:39.578Z,73.52
2022-10-03T04:04:39.859Z,73.52
2022-10-03T04:05:39.655Z,73.61
2022-10-03T04:06:39.639Z,73.61
2022-10-03T04:07:39.911Z,73.61
2022-10-03T04:08:39.931Z,73.71
2022-10-03T04:09:39.694Z,73.71
2022-10-03T04:10:39.971Z,73.61
2022-10-03T04:11:40.683Z,73.61
2022-10-03T04:12:40.006Z,73.61
2022-10-03T04:13:40.019Z,73.61
2022-10-03T04:14:40.037Z,73.71
2022-10-03T04:15:40.051Z,73.61
2022-10-03T04:16:40.320Z,73.8
2022-10-03T04:17:40.091Z,73.8
2022-10-03T04:18:40.116Z,73.71
2022-10-03T04:19:39.873Z,73.99
2022-10-03T04:20:40.149Z,73.8
2022-10-03T04:21:40.998Z,74.19
2022-10-03T04:22:40.188Z,74.28
2022-10-03T04:23:40.195Z,74.19
2022-10-03T04:24:40.227Z,74.28
2022-10-03T04:25:40.240Z,73.99
2022-10-03T04:26:40.266Z,74.28
2022-10-03T04:27:40.019Z,74.19
2022-10-03T04:28:40.294Z,74.28
2022-10-03T04:29:40.306Z,74.19
2022-10-03T04:30:40.332Z,74.28
2022-10-03T04:31:41.095Z,74.09
2022-10-03T04:32:40.388Z,73.99
2022-10-03T04:33:40.389Z,74.38
2022-10-03T04:34:40.516Z,73.9
2022-10-03T04:35:40.420Z,74.28
2022-10-03T04:36:40.442Z,73.99
2022-10-03T04:37:40.479Z,73.99
2022-10-03T04:38:40.469Z,74.19
2022-10-03T04:39:40.256Z,74.19
2022-10-03T04:40:40.508Z,74.28
2022-10-03T04:41:45.581Z,74.19
2022-10-03T04:42:40.548Z,74.38
2022-10-03T04:43:40.309Z,74.19
2022-10-03T04:44:40.585Z,74.28
2022-10-03T04:45:40.805Z,74.28
2022-10-03T04:46:40.616Z,73.99
2022-10-03T04:47:40.638Z,74.38
2022-10-03T04:48:40.679Z,74.38
2022-10-03T04:49:40.685Z,74.09
2022-10-03T04:50:40.430Z,73.9
2022-10-03T04:51:41.365Z,73.99
2022-10-03T04:52:41.026Z,73.99
2022-10-03T04:53:40.775Z,74.09
2022-10-03T04:54:40.510Z,74.28
2022-10-03T04:55:40.784Z,74.38
2022-10-03T04:56:40.806Z,74.57
2022-10-03T04:57:40.822Z,74.48
2022-10-03T04:58:40.579Z,74.38
2022-10-03T04:59:40.853Z,74.48
2022-10-03T05:00:40.747Z,74.19
2022-10-03T05:01:41.713Z,74.19
2022-10-03T05:02:41.054Z,74.57
2022-10-03T05:03:40.670Z,74.19
2022-10-03T05:04:40.967Z,74.48
2022-10-03T05:05:40.963Z,74.19
2022-10-03T05:06:40.721Z,74.38
2022-10-03T05:07:41.000Z,74.48
2022-10-03T05:08:41.032Z,74.48
2022-10-03T05:09:41.070Z,74.28
2022-10-03T05:10:40.800Z,74.48
2022-10-03T05:11:41.525Z,74.48
2022-10-03T05:12:40.831Z,74.66
2022-10-03T05:13:40.853Z,74.38
2022-10-03T05:14:41.126Z,74.28
2022-10-03T05:15:41.144Z,74.48
2022-10-03T05:16:41.273Z,74.38
2022-10-03T05:17:41.192Z,74.38
2022-10-03T05:18:41.199Z,74.38
2022-10-03T05:19:40.958Z,74.48
2022-10-03T05:20:41.343Z,74.28
2022-10-03T05:21:41.985Z,74.38
2022-10-03T05:22:41.273Z,74.48
2022-10-03T05:23:41.292Z,74.38
2022-10-03T05:24:41.315Z,74.66
2022-10-03T05:25:41.353Z,74.28
2022-10-03T05:26:48.749Z,74.38
2022-10-03T05:27:41.360Z,74.76
2022-10-03T05:28:41.389Z,74.66
2022-10-03T05:29:41.478Z,74.57
2022-10-03T05:30:41.425Z,74.66
2022-10-03T05:31:42.374Z,74.76
2022-10-03T05:32:41.526Z,74.76
2022-10-03T05:33:41.471Z,74.85
2022-10-03T05:34:41.235Z,74.76
2022-10-03T05:35:41.503Z,74.76
2022-10-03T05:36:41.560Z,74.95
2022-10-03T05:37:41.540Z,74.57
2022-10-03T05:38:41.569Z,74.66
2022-10-03T05:39:41.579Z,74.95
2022-10-03T05:40:41.605Z,74.66
2022-10-03T05:41:42.299Z,74.76
2022-10-03T05:42:41.636Z,74.85
2022-10-03T05:43:41.653Z,74.95
2022-10-03T05:44:41.673Z,74.66
2022-10-03T05:45:41.831Z,75.05
2022-10-03T05:46:41.714Z,74.76
2022-10-03T05:47:41.473Z,74.66
2022-10-03T05:48:41.749Z,74.66
2022-10-03T05:49:41.507Z,74.76
2022-10-03T05:50:41.784Z,74.66
2022-10-03T05:51:42.782Z,74.66
2022-10-03T05:52:42.043Z,74.76
2022-10-03T05:53:41.578Z,74.38
2022-10-03T05:54:41.857Z,74.66
2022-10-03T05:55:41.615Z,74.57
2022-10-03T05:56:43.676Z,74.76
2022-10-03T05:57:41.935Z,74.76
2022-10-03T05:58:41.929Z,74.57
2022-10-03T05:59:41.949Z,74.66
2022-10-03T06:00:41.969Z,74.66
2022-10-03T06:01:42.268Z,74.76
2022-10-03T06:02:42.258Z,74.76
2022-10-03T06:03:41.764Z,74.48
2022-10-03T06:04:42.046Z,74.66
2022-10-03T06:05:42.057Z,74.76
2022-10-03T06:06:41.821Z,74.66
2022-10-03T06:07:42.095Z,74.57
2022-10-03T06:08:42.135Z,74.57
2022-10-03T06:09:41.870Z,74.48
2022-10-03T06:10:42.149Z,74.57
2022-10-03T06:11:42.765Z,74.48
2022-10-03T06:12:42.191Z,74.57
2022-10-03T06:13:42.219Z,74.48
2022-10-03T06:14:41.967Z,74.66
2022-10-03T06:15:42.366Z,74.76
2022-10-03T06:16:42.254Z,74.28
2022-10-03T06:17:45.589Z,74.28
2022-10-03T06:18:42.297Z,74.28
2022-10-03T06:19:42.318Z,74.48
2022-10-03T06:20:42.071Z,74.48
2022-10-03T06:21:42.753Z,74.28
2022-10-03T06:22:42.369Z,74.57
2022-10-03T06:23:42.392Z,74.57
2022-10-03T06:24:42.432Z,74.38
2022-10-03T06:25:42.168Z,74.48
2022-10-03T06:26:42.446Z,74.48
2022-10-03T06:27:42.462Z,74.48
2022-10-03T06:28:42.476Z,74.76
2022-10-03T06:29:42.526Z,74.48
2022-10-03T06:30:42.634Z,74.66
2022-10-03T06:31:43.210Z,74.48
2022-10-03T06:32:42.549Z,74.28
2022-10-03T06:33:42.577Z,74.66
2022-10-03T06:34:42.338Z,74.48
2022-10-03T06:35:42.351Z,74.76
2022-10-03T06:36:42.370Z,74.48
2022-10-03T06:37:42.663Z,74.57
2022-10-03T06:38:42.665Z,74.48
2022-10-03T06:39:42.685Z,74.48
2022-10-03T06:40:42.727Z,74.48
2022-10-03T06:41:43.266Z,74.66
2022-10-03T06:42:42.482Z,74.48
2022-10-03T06:43:42.510Z,74.66
2022-10-03T06:44:42.779Z,74.95
2022-10-03T06:45:42.955Z,74.66
2022-10-03T06:46:42.913Z,74.66
2022-10-03T06:47:42.825Z,74.57
2022-10-03T06:48:42.845Z,74.48
2022-10-03T06:49:42.870Z,74.48
2022-10-03T06:50:42.619Z,74.48
2022-10-03T06:51:43.421Z,74.66
2022-10-03T06:52:43.069Z,74.48
2022-10-03T06:53:42.940Z,74.48
2022-10-03T06:54:42.953Z,74.66
2022-10-03T06:55:42.721Z,74.66
2022-10-03T06:56:46.372Z,74.48
2022-10-03T06:57:43.018Z,74.48
2022-10-03T06:58:42.774Z,74.76
2022-10-03T06:59:42.790Z,74.76
2022-10-03T07:00:43.066Z,74.76
2022-10-03T07:01:43.899Z,74.48
2022-10-03T07:02:42.965Z,74.85
2022-10-03T07:03:43.127Z,74.57
2022-10-03T07:04:42.886Z,74.66
2022-10-03T07:05:43.771Z,74.57
2022-10-03T07:06:43.185Z,74.57
2022-10-03T07:07:42.936Z,74.57
2022-10-03T07:08:43.220Z,74.66
2022-10-03T07:09:42.973Z,74.66
2022-10-03T07:10:43.005Z,74.76
2022-10-03T07:11:43.515Z,74.66
2022-10-03T07:12:43.401Z,74.66
2022-10-03T07:13:43.302Z,74.66
2022-10-03T07:14:43.067Z,74.57
2022-10-03T07:16:27.391Z,74.57
2022-10-03T07:16:43.542Z,74.57
2022-10-03T07:17:43.411Z,74.48
2022-10-03T07:18:43.145Z,74.66
2022-10-03T07:19:43.156Z,74.48
2022-10-03T07:20:43.441Z,74.48
2022-10-03T07:21:44.133Z,74.66
2022-10-03T07:22:43.214Z,74.66
2022-10-03T07:23:43.492Z,74.66
2022-10-03T07:24:43.514Z,74.57
2022-10-03T07:25:43.530Z,74.66
2022-10-03T07:26:43.542Z,74.85
2022-10-03T07:27:46.308Z,74.66
2022-10-03T07:28:43.719Z,74.66
2022-10-03T07:29:43.595Z,74.66
2022-10-03T07:30:43.798Z,74.66
2022-10-03T07:31:44.291Z,74.57
2022-10-03T07:32:43.656Z,74.57
2022-10-03T07:33:43.438Z,74.66
2022-10-03T07:34:43.438Z,74.48
2022-10-03T07:35:43.707Z,74.48
2022-10-03T07:36:43.731Z,74.57
2022-10-03T07:37:43.741Z,74.57
2022-10-03T07:38:43.777Z,74.66
2022-10-03T07:39:43.779Z,74.66
2022-10-03T07:40:43.547Z,74.66
2022-10-03T07:41:44.081Z,74.95
2022-10-03T07:42:49.097Z,74.66
2022-10-03T07:43:43.858Z,74.57
2022-10-03T07:44:43.907Z,74.66
2022-10-03T07:45:43.896Z,74.85
2022-10-03T07:46:44.111Z,74.95
2022-10-03T07:47:43.925Z,74.76
2022-10-03T07:48:43.696Z,74.76
2022-10-03T07:49:43.989Z,74.76
2022-10-03T07:50:43.997Z,74.85
2022-10-03T07:51:44.539Z,74.66
2022-10-03T07:52:44.167Z,74.09
2022-10-03T07:53:44.039Z,74.66
2022-10-03T07:54:44.068Z,74.76
2022-10-03T07:55:44.081Z,73.9
2022-10-03T07:56:44.105Z,74.85
2022-10-03T07:57:44.112Z,74.48
2022-10-03T07:58:43.874Z,74.48
2022-10-03T07:59:44.163Z,74.95
2022-10-03T08:00:44.206Z,74.85
2022-10-03T08:01:44.656Z,74.76
2022-10-03T08:02:44.388Z,74.66
2022-10-03T08:03:44.399Z,74.66
2022-10-03T08:04:44.243Z,74.48
2022-10-03T08:05:44.291Z,74.28
2022-10-03T08:06:44.279Z,74.28
2022-10-03T08:07:44.305Z,74.48
2022-10-03T08:08:44.317Z,74.28
2022-10-03T08:09:44.361Z,74.66
2022-10-03T08:10:44.100Z,74.76
2022-10-03T08:11:44.611Z,74.66
2022-10-03T08:12:44.390Z,74.76
2022-10-03T08:13:44.156Z,74.66
2022-10-03T08:14:44.171Z,74.95
2022-10-03T08:15:44.529Z,74.48
2022-10-03T08:16:44.498Z,74.28
2022-10-03T08:17:44.493Z,74.28
2022-10-03T08:18:44.502Z,74.38
2022-10-03T08:19:44.535Z,74.32
2022-10-03T08:20:44.279Z,74.28
2022-10-03T08:21:45.007Z,74.57
2022-10-03T08:22:44.586Z,74.48
2022-10-03T08:23:44.341Z,74.48
2022-10-03T08:24:44.619Z,74.57
2022-10-03T08:25:44.381Z,74.57
2022-10-03T08:26:44.403Z,74.57
2022-10-03T08:27:44.670Z,74.57
2022-10-03T08:28:44.688Z,74.57
2022-10-03T08:29:44.709Z,74.66
2022-10-03T08:30:44.912Z,74.09
2022-10-03T08:31:45.541Z,74.41
2022-10-03T08:32:50.842Z,74.22
2022-10-03T08:33:44.791Z,74.19
2022-10-03T08:34:44.805Z,74.09
2022-10-03T08:35:44.560Z,74.13
2022-10-03T08:36:44.610Z,74.13
2022-10-03T08:37:44.627Z,74.13
2022-10-03T08:38:44.625Z,74.13
2022-10-03T08:39:44.645Z,74.13
2022-10-03T08:40:45.010Z,74.51
2022-10-03T08:41:45.127Z,74.22
2022-10-03T08:42:44.692Z,74.22
2022-10-03T08:43:45.023Z,74.22
2022-10-03T08:44:44.732Z,74.32
2022-10-03T08:45:45.006Z,74.22
2022-10-03T08:46:45.224Z,74.13
2022-10-03T08:47:45.045Z,74.32
2022-10-03T08:48:45.083Z,74.41
2022-10-03T08:49:45.072Z,74.19
2022-10-03T08:50:45.099Z,74.41
2022-10-03T08:51:45.237Z,74.13
2022-10-03T08:52:45.082Z,74.13
2022-10-03T08:53:45.180Z,74.13
2022-10-03T08:54:45.170Z,74.32
2022-10-03T08:55:45.195Z,74.22
2022-10-03T08:56:45.048Z,74.51
2022-10-03T08:57:45.227Z,74.51
2022-10-03T08:58:45.242Z,74.13
2022-10-03T08:59:45.053Z,74.22
2022-10-03T09:00:45.283Z,74.22
2022-10-03T09:01:46.125Z,73.94
2022-10-03T09:02:45.251Z,74.41
2022-10-03T09:03:46.117Z,74.41
2022-10-03T09:04:45.387Z,74.04
2022-10-03T09:05:45.120Z,74.51
2022-10-03T09:07:23.651Z,74.32
2022-10-03T09:07:45.405Z,74.41
2022-10-03T09:08:45.177Z,74.51
2022-10-03T09:09:45.471Z,74.41
2022-10-03T09:10:45.218Z,74.13
2022-10-03T09:11:45.492Z,74.13
2022-10-03T09:12:45.249Z,74.32
2022-10-03T09:13:45.522Z,74.22
2022-10-03T09:14:45.551Z,74.22
2022-10-03T09:15:45.680Z,73.94
2022-10-03T09:16:46.346Z,73.94
2022-10-03T09:17:45.594Z,74.22
2022-10-03T09:18:45.621Z,74.22
2022-10-03T09:19:45.634Z,73.55
2022-10-03T09:20:45.692Z,73.94
2022-10-03T09:21:45.680Z,73.65
2022-10-03T09:22:45.691Z,73.75
2022-10-03T09:23:45.715Z,73.65
2022-10-03T09:24:45.482Z,73.65
2022-10-03T09:25:45.791Z,73.65
2022-10-03T09:26:46.046Z,73.65
2022-10-03T09:27:45.784Z,73.55
2022-10-03T09:28:45.549Z,73.69
2022-10-03T09:29:45.820Z,73.4
2022-10-03T09:30:45.583Z,73.46
2022-10-03T09:31:46.473Z,73.27
2022-10-03T09:32:45.889Z,73.79
2022-10-03T09:33:45.907Z,73.55
2022-10-03T09:34:45.927Z,73.59
2022-10-03T09:35:45.683Z,73.65
2022-10-03T09:36:45.986Z,73.59
2022-10-03T09:37:45.723Z,73.4
2022-10-03T09:38:46.008Z,73.59
2022-10-03T09:39:46.018Z,73.69
2022-10-03T09:40:48.003Z,73.5
2022-10-03T09:41:46.087Z,73.3
2022-10-03T09:42:46.084Z,73.5
2022-10-03T09:43:46.098Z,73.5
2022-10-03T09:44:45.865Z,73.5
2022-10-03T09:45:46.130Z,73.5
2022-10-03T09:46:49.104Z,73.3
2022-10-03T09:47:46.172Z,73.3
2022-10-03T09:48:46.194Z,73.21
2022-10-03T09:49:45.956Z,73.02
2022-10-03T09:50:45.981Z,73.3
2022-10-03T09:51:46.003Z,73.02
2022-10-03T09:52:46.697Z,73.11
2022-10-03T09:53:46.291Z,73.02
2022-10-03T09:54:46.052Z,72.73
2022-10-03T09:55:46.068Z,73.21
2022-10-03T09:56:46.205Z,73.02
2022-10-03T09:57:46.384Z,72.73
2022-10-03T09:58:46.377Z,72.63
2022-10-03T09:59:46.399Z,72.63
2022-10-03T10:00:46.282Z,72.44
2022-10-03T10:01:46.180Z,72.73
2022-10-03T10:02:46.454Z,72.25
2022-10-03T10:03:46.317Z,72.63
2022-10-03T10:04:57.355Z,72.44
2022-10-03T10:05:46.509Z,72.54
2022-10-03T10:06:46.532Z,72.67
2022-10-03T10:07:46.292Z,72.48
2022-10-03T10:08:46.596Z,72.67
2022-10-03T10:09:46.588Z,72.38
2022-10-03T10:10:46.350Z,72.38
2022-10-03T10:11:46.627Z,72.38
2022-10-03T10:12:46.385Z,72.48
2022-10-03T10:14:08.760Z,72.96
2022-10-03T10:14:46.685Z,72.77
2022-10-03T10:15:46.853Z,72.58
2022-10-03T10:16:50.956Z,72.86
2022-10-03T10:17:46.740Z,72.58
2022-10-03T10:18:46.503Z,72.77
2022-10-03T10:19:46.785Z,73.05
2022-10-03T10:20:46.537Z,72.58
2022-10-03T10:21:46.817Z,72.77
2022-10-03T10:22:46.832Z,72.58
2022-10-03T10:23:46.857Z,72.38
2022-10-03T10:24:46.935Z,72.38
2022-10-03T10:25:46.643Z,72.29
2022-10-03T10:26:47.811Z,72.29
2022-10-03T10:27:46.929Z,72.38
2022-10-03T10:28:46.948Z,72.29
2022-10-03T10:29:46.995Z,72.19
2022-10-03T10:30:46.984Z,72.19
2022-10-03T10:31:47.146Z,71.81
2022-10-03T10:32:47.032Z,72.19
2022-10-03T10:33:47.043Z,72
2022-10-03T10:34:47.069Z,72
2022-10-03T10:35:47.080Z,72.09
2022-10-03T10:36:47.207Z,72.29
2022-10-03T10:37:48.872Z,72.19
2022-10-03T10:38:47.151Z,72.38
2022-10-03T10:39:46.908Z,72
2022-10-03T10:40:47.215Z,71.71
2022-10-03T10:41:46.942Z,72
2022-10-03T10:42:47.229Z,72
2022-10-03T10:43:47.239Z,72.19
2022-10-03T10:44:47.260Z,72
2022-10-03T10:45:47.326Z,71.91
2022-10-03T10:46:48.021Z,72.13
2022-10-03T10:47:47.056Z,72
2022-10-03T10:48:47.337Z,72.09
2022-10-03T10:49:47.127Z,72.09
2022-10-03T10:50:47.119Z,72
2022-10-03T10:51:47.142Z,71.91
2022-10-03T10:52:47.456Z,72.23
2022-10-03T10:53:47.434Z,72.19
2022-10-03T10:54:47.195Z,71.71
2022-10-03T10:55:48.523Z,72.19
2022-10-03T10:56:47.523Z,71.91
2022-10-03T10:57:47.507Z,71.81
2022-10-03T10:58:47.264Z,72
2022-10-03T10:59:47.693Z,71.91
2022-10-03T11:00:47.574Z,71.81
2022-10-03T11:01:48.635Z,71.91
2022-10-03T11:02:47.762Z,72
2022-10-03T11:03:47.845Z,72.19
2022-10-03T11:04:47.840Z,72.09
2022-10-03T11:05:47.449Z,72.42
2022-10-03T11:06:47.736Z,72.71
2022-10-03T11:07:51.891Z,72.61
2022-10-03T11:08:47.715Z,72.61
2022-10-03T11:09:47.743Z,72.61
2022-10-03T11:10:47.758Z,72.61
2022-10-03T11:11:47.520Z,72.52
2022-10-03T11:12:47.927Z,72.8
2022-10-03T11:13:47.549Z,72.32
2022-10-03T11:14:47.834Z,72.42
2022-10-03T11:15:47.853Z,72.42
2022-10-03T11:16:48.295Z,73.09
2022-10-03T11:17:47.658Z,72.99
2022-10-03T11:18:47.654Z,72.9
2022-10-03T11:19:47.928Z,73.76
2022-10-03T11:20:47.694Z,72.71
2022-10-03T11:21:47.969Z,72.71
2022-10-03T11:22:47.983Z,72.99
2022-10-03T11:23:47.751Z,72.9
2022-10-03T11:24:48.026Z,72.8
2022-10-03T11:25:48.049Z,72.9
2022-10-03T11:26:48.064Z,73.09
2022-10-03T11:27:48.253Z,72.9
2022-10-03T11:28:48.261Z,72.99
2022-10-03T11:29:48.126Z,72.99
2022-10-03T11:30:48.136Z,73.28
2022-10-03T11:31:48.318Z,73.38
2022-10-03T11:32:48.184Z,73.19
2022-10-03T11:33:48.240Z,73.47
2022-10-03T11:34:48.222Z,73.76
2022-10-03T11:35:48.242Z,73.86
2022-10-03T11:36:48.012Z,73.76
2022-10-03T11:37:48.283Z,73.76
2022-10-03T11:38:48.035Z,73.66
2022-10-03T11:39:48.322Z,73.76
2022-10-03T11:40:48.339Z,73.95
2022-10-03T11:41:48.360Z,73.76
2022-10-03T11:42:48.117Z,73.09
2022-10-03T11:43:48.396Z,73.76
2022-10-03T11:44:48.442Z,73.47
2022-10-03T11:45:48.353Z,73.66
2022-10-03T11:46:48.206Z,73.76
2022-10-03T11:47:48.479Z,73.76
2022-10-03T11:48:48.498Z,73.66
2022-10-03T11:49:48.537Z,73.51
2022-10-03T11:50:48.552Z,72.9
2022-10-03T11:51:53.963Z,72.52
2022-10-03T11:52:48.925Z,72.8
2022-10-03T11:53:48.343Z,72.99
2022-10-03T11:54:48.616Z,72.61
2022-10-03T11:55:48.409Z,72.61
2022-10-03T11:56:48.654Z,72.64
2022-10-03T11:57:48.417Z,72.74
2022-10-03T11:58:48.687Z,72.36
2022-10-03T11:59:48.711Z,72.42
2022-10-03T12:00:48.753Z,72.03
2022-10-03T12:01:53.814Z,72.27
2022-10-03T12:02:49.104Z,72.45
2022-10-03T12:03:48.535Z,72.45
2022-10-03T12:04:48.552Z,72.32
2022-10-03T12:05:48.862Z,72.55
2022-10-03T12:06:48.851Z,72.17
2022-10-03T12:07:48.879Z,72.27
2022-10-03T12:08:48.630Z,72.17
2022-10-03T12:09:48.659Z,72.17
2022-10-03T12:10:48.929Z,72.17
2022-10-03T12:11:48.950Z,72.27
2022-10-03T12:12:48.969Z,72.17
2022-10-03T12:13:48.998Z,72.27
2022-10-03T12:14:48.755Z,71.88
2022-10-03T12:15:49.034Z,71.88
2022-10-03T12:16:49.249Z,71.88
2022-10-03T12:17:49.067Z,72.07
2022-10-03T12:18:49.086Z,71.88
2022-10-03T12:19:49.118Z,71.88
2022-10-03T12:20:49.131Z,71.88
2022-10-03T12:21:49.183Z,71.59
2022-10-03T12:22:48.908Z,71.4
2022-10-03T12:23:49.182Z,71.31
2022-10-03T12:24:49.208Z,71.21
2022-10-03T12:25:49.225Z,71.31
2022-10-03T12:26:49.249Z,71.59
2022-10-03T12:27:49.092Z,71.78
2022-10-03T12:28:49.280Z,71.59
2022-10-03T12:29:49.047Z,71.5
2022-10-03T12:30:49.324Z,71.21
2022-10-03T12:31:49.262Z,71.59
2022-10-03T12:32:49.395Z,71.69
2022-10-03T12:33:49.392Z,71.31
2022-10-03T12:34:49.404Z,70.92
2022-10-03T12:35:49.418Z,71.02
2022-10-03T12:36:49.443Z,70.83
2022-10-03T12:37:49.487Z,71.02
2022-10-03T12:38:53.438Z,71.02
2022-10-03T12:39:49.499Z,70.83
2022-10-03T12:40:49.518Z,71.11
2022-10-03T12:41:49.534Z,71.02
2022-10-03T12:42:49.562Z,70.92
2022-10-03T12:43:49.318Z,71.31
2022-10-03T12:44:49.610Z,71.5
2022-10-03T12:45:49.686Z,71.4
2022-10-03T12:46:49.657Z,71.31
2022-10-03T12:47:58.457Z,71.31
2022-10-03T12:48:49.708Z,71.69
2022-10-03T12:49:49.447Z,71.59
2022-10-03T12:50:49.467Z,71.78
2022-10-03T12:51:49.493Z,71.31
2022-10-03T12:52:50.112Z,71.31
2022-10-03T12:53:49.796Z,71.78
2022-10-03T12:54:49.544Z,71.59